sensor_id;sensor_type;location;lat;lon;timestamp;pressure;altitude;pressure_sealevel;temperature;humidity
75646;BME280;64237;52.438;13.240;2022-10-17T00:00:44;101777.53;;;11.91;84.15
75646;BME280;64237;52.438;13.240;2022-10-17T00:03:09;101774.16;;;11.89;84.34
75646;BME280;64237;52.438;13.240;2022-10-17T00:05:40;101774.84;;;11.84;84.64
75646;BME280;64237;52.438;13.240;2022-10-17T00:08:06;101768.28;;;11.79;85.30
75646;BME280;64237;52.438;13.240;2022-10-17T00:10:31;101772.00;;;11.91;84.83
75646;BME280;64237;52.438;13.240;2022-10-17T00:12:56;101762.22;;;11.88;85.04
75646;BME280;64237;52.438;13.240;2022-10-17T00:15:22;101763.84;;;11.96;85.00
75646;BME280;64237;52.438;13.240;2022-10-17T00:17:48;101770.25;;;11.96;84.49
75646;BME280;64237;52.438;13.240;2022-10-17T00:20:14;101774.53;;;11.92;84.67
75646;BME280;64237;52.438;13.240;2022-10-17T00:22:39;101775.06;;;11.83;84.84
75646;BME280;64237;52.438;13.240;2022-10-17T00:25:05;101785.75;;;11.73;85.55
75646;BME280;64237;52.438;13.240;2022-10-17T00:27:34;101778.06;;;11.75;85.06
75646;BME280;64237;52.438;13.240;2022-10-17T00:30:00;101769.59;;;11.69;85.69
75646;BME280;64237;52.438;13.240;2022-10-17T00:32:26;101767.28;;;11.66;85.68
75646;BME280;64237;52.438;13.240;2022-10-17T00:34:51;101761.66;;;11.73;85.92
75646;BME280;64237;52.438;13.240;2022-10-17T00:37:16;101760.59;;;11.81;85.38
75646;BME280;64237;52.438;13.240;2022-10-17T00:39:42;101767.38;;;11.85;85.43
75646;BME280;64237;52.438;13.240;2022-10-17T00:42:11;101769.06;;;11.86;84.93
75646;BME280;64237;52.438;13.240;2022-10-17T00:47:08;101751.50;;;11.92;85.17
75646;BME280;64237;52.438;13.240;2022-10-17T00:49:36;101768.94;;;11.99;85.01
75646;BME280;64237;52.438;13.240;2022-10-17T00:52:10;101777.94;;;11.94;85.34
75646;BME280;64237;52.438;13.240;2022-10-17T00:54:41;101770.25;;;11.96;85.15
75646;BME280;64237;52.438;13.240;2022-10-17T00:57:07;101782.09;;;12.10;84.90
75646;BME280;64237;52.438;13.240;2022-10-17T00:59:35;101777.75;;;12.14;85.12
75646;BME280;64237;52.438;13.240;2022-10-17T01:02:07;101785.78;;;12.22;84.55
75646;BME280;64237;52.438;13.240;2022-10-17T01:04:35;101770.91;;;12.17;84.73
75646;BME280;64237;52.438;13.240;2022-10-17T01:07:01;101761.09;;;12.14;84.57
75646;BME280;64237;52.438;13.240;2022-10-17T01:09:26;101760.00;;;11.97;85.08
75646;BME280;64237;52.438;13.240;2022-10-17T01:12:14;101764.78;;;11.90;85.38
75646;BME280;64237;52.438;13.240;2022-10-17T01:29:14;101757.97;;;11.86;84.67
75646;BME280;64237;52.438;13.240;2022-10-17T01:31:51;101750.13;;;11.83;85.18
75646;BME280;64237;52.438;13.240;2022-10-17T01:34:24;101749.03;;;11.84;84.94
75646;BME280;64237;52.438;13.240;2022-10-17T01:42:06;101752.44;;;11.86;84.35
75646;BME280;64237;52.438;13.240;2022-10-17T01:44:40;101743.13;;;11.74;85.11
75646;BME280;64237;52.438;13.240;2022-10-17T01:47:11;101739.09;;;11.69;84.86
75646;BME280;64237;52.438;13.240;2022-10-17T01:49:39;101744.13;;;11.54;85.54
75646;BME280;64237;52.438;13.240;2022-10-17T01:52:08;101738.41;;;11.49;85.47
75646;BME280;64237;52.438;13.240;2022-10-17T01:54:40;101739.03;;;11.51;85.81
75646;BME280;64237;52.438;13.240;2022-10-17T01:57:12;101731.88;;;11.44;85.55
75646;BME280;64237;52.438;13.240;2022-10-17T01:59:43;101740.41;;;11.42;85.71
75646;BME280;64237;52.438;13.240;2022-10-17T02:02:10;101746.81;;;11.36;86.34
75646;BME280;64237;52.438;13.240;2022-10-17T02:04:39;101735.53;;;11.38;86.14
75646;BME280;64237;52.438;13.240;2022-10-17T02:07:10;101738.28;;;11.38;85.89
75646;BME280;64237;52.438;13.240;2022-10-17T02:09:35;101745.09;;;11.42;85.34
75646;BME280;64237;52.438;13.240;2022-10-17T02:20:39;101740.84;;;11.39;85.32
75646;BME280;64237;52.438;13.240;2022-10-17T02:23:24;101737.41;;;11.44;85.34
75646;BME280;64237;52.438;13.240;2022-10-17T02:34:17;101733.63;;;11.31;86.57
75646;BME280;64237;52.438;13.240;2022-10-17T02:36:51;101734.91;;;11.36;86.12
75646;BME280;64237;52.438;13.240;2022-10-17T02:39:19;101721.88;;;11.36;86.27
75646;BME280;64237;52.438;13.240;2022-10-17T02:41:47;101730.38;;;11.41;86.69
75646;BME280;64237;52.438;13.240;2022-10-17T02:44:13;101723.78;;;11.42;86.17
75646;BME280;64237;52.438;13.240;2022-10-17T02:46:40;101722.84;;;11.48;86.45
75646;BME280;64237;52.438;13.240;2022-10-17T02:49:28;101730.09;;;11.49;86.48
75646;BME280;64237;52.438;13.240;2022-10-17T02:52:15;101721.97;;;11.54;86.65
75646;BME280;64237;52.438;13.240;2022-10-17T02:54:47;101721.97;;;11.54;86.09
75646;BME280;64237;52.438;13.240;2022-10-17T02:57:55;101714.09;;;11.51;86.78
75646;BME280;64237;52.438;13.240;2022-10-17T03:00:22;101720.03;;;11.55;87.33
75646;BME280;64237;52.438;13.240;2022-10-17T03:02:50;101718.56;;;11.52;87.56
75646;BME280;64237;52.438;13.240;2022-10-17T03:05:21;101716.38;;;11.61;87.62
75646;BME280;64237;52.438;13.240;2022-10-17T03:07:47;101730.41;;;11.66;88.27
75646;BME280;64237;52.438;13.240;2022-10-17T03:10:13;101738.00;;;11.71;87.61
75646;BME280;64237;52.438;13.240;2022-10-17T03:12:38;101726.47;;;11.74;88.16
75646;BME280;64237;52.438;13.240;2022-10-17T03:15:05;101722.44;;;11.76;87.42
75646;BME280;64237;52.438;13.240;2022-10-17T03:17:31;101719.16;;;11.86;88.02
75646;BME280;64237;52.438;13.240;2022-10-17T03:19:56;101716.53;;;11.91;88.44
75646;BME280;64237;52.438;13.240;2022-10-17T03:22:21;101706.84;;;12.00;88.04
75646;BME280;64237;52.438;13.240;2022-10-17T03:24:47;101701.25;;;12.07;88.50
75646;BME280;64237;52.438;13.240;2022-10-17T03:27:12;101705.41;;;12.16;90.00
75646;BME280;64237;52.438;13.240;2022-10-17T03:29:38;101711.50;;;12.24;90.02
75646;BME280;64237;52.438;13.240;2022-10-17T03:32:03;101719.53;;;12.32;90.91
75646;BME280;64237;52.438;13.240;2022-10-17T03:34:29;101714.72;;;12.40;91.02
75646;BME280;64237;52.438;13.240;2022-10-17T03:36:54;101713.81;;;12.46;90.77
75646;BME280;64237;52.438;13.240;2022-10-17T03:39:20;101712.91;;;12.52;90.63
75646;BME280;64237;52.438;13.240;2022-10-17T03:41:45;101704.56;;;12.52;90.59
75646;BME280;64237;52.438;13.240;2022-10-17T03:44:11;101700.09;;;12.51;90.26
75646;BME280;64237;52.438;13.240;2022-10-17T03:46:36;101694.09;;;12.54;90.25
75646;BME280;64237;52.438;13.240;2022-10-17T03:49:01;101703.63;;;12.58;90.90
75646;BME280;64237;52.438;13.240;2022-10-17T03:51:27;101703.00;;;12.56;90.11
75646;BME280;64237;52.438;13.240;2022-10-17T03:53:52;101706.03;;;12.54;90.07
75646;BME280;64237;52.438;13.240;2022-10-17T03:56:20;101703.50;;;12.53;90.47
75646;BME280;64237;52.438;13.240;2022-10-17T03:58:47;101703.94;;;12.50;89.79
75646;BME280;64237;52.438;13.240;2022-10-17T04:01:15;101691.53;;;12.52;90.80
75646;BME280;64237;52.438;13.240;2022-10-17T04:03:41;101699.63;;;12.54;90.80
75646;BME280;64237;52.438;13.240;2022-10-17T04:06:10;101698.41;;;12.50;90.30
75646;BME280;64237;52.438;13.240;2022-10-17T04:08:36;101691.16;;;12.49;90.44
75646;BME280;64237;52.438;13.240;2022-10-17T04:11:03;101691.38;;;12.47;90.02
75646;BME280;64237;52.438;13.240;2022-10-17T04:13:29;101690.97;;;12.62;91.13
75646;BME280;64237;52.438;13.240;2022-10-17T04:16:15;101687.56;;;12.60;90.87
75646;BME280;64237;52.438;13.240;2022-10-17T04:18:41;101690.22;;;12.55;90.08
75646;BME280;64237;52.438;13.240;2022-10-17T04:21:09;101693.00;;;12.55;90.59
75646;BME280;64237;52.438;13.240;2022-10-17T04:23:35;101687.91;;;12.52;91.32
75646;BME280;64237;52.438;13.240;2022-10-17T04:26:02;101691.75;;;12.51;90.06
75646;BME280;64237;52.438;13.240;2022-10-17T04:28:29;101685.59;;;12.49;90.17
75646;BME280;64237;52.438;13.240;2022-10-17T04:30:59;101687.75;;;12.47;90.02
75646;BME280;64237;52.438;13.240;2022-10-17T04:33:25;101686.28;;;12.44;90.06
75646;BME280;64237;52.438;13.240;2022-10-17T04:36:11;101690.84;;;12.39;89.89
75646;BME280;64237;52.438;13.240;2022-10-17T04:38:38;101691.06;;;12.37;90.41
75646;BME280;64237;52.438;13.240;2022-10-17T04:41:06;101688.16;;;12.32;89.56
75646;BME280;64237;52.438;13.240;2022-10-17T04:43:34;101689.59;;;12.34;91.00
75646;BME280;64237;52.438;13.240;2022-10-17T04:46:02;101686.22;;;12.32;90.34
75646;BME280;64237;52.438;13.240;2022-10-17T04:48:28;101687.31;;;12.31;90.04
75646;BME280;64237;52.438;13.240;2022-10-17T04:50:56;101699.03;;;12.33;90.24
75646;BME280;64237;52.438;13.240;2022-10-17T04:53:22;101693.94;;;12.30;90.15
75646;BME280;64237;52.438;13.240;2022-10-17T04:55:48;101693.94;;;12.30;90.73
75646;BME280;64237;52.438;13.240;2022-10-17T04:58:13;101691.00;;;12.25;90.14
75646;BME280;64237;52.438;13.240;2022-10-17T05:00:38;101687.16;;;12.26;90.50
75646;BME280;64237;52.438;13.240;2022-10-17T05:03:04;101687.59;;;12.23;90.44
75646;BME280;64237;52.438;13.240;2022-10-17T05:05:29;101692.75;;;12.20;90.12
75646;BME280;64237;52.438;13.240;2022-10-17T05:07:55;101680.81;;;12.19;89.96
75646;BME280;64237;52.438;13.240;2022-10-17T05:10:20;101687.69;;;12.17;89.49
75646;BME280;64237;52.438;13.240;2022-10-17T05:12:47;101688.06;;;12.20;90.39
75646;BME280;64237;52.438;13.240;2022-10-17T05:15:14;101697.72;;;13.14;89.97
75646;BME280;64237;52.438;13.240;2022-10-17T05:17:39;101690.84;;;13.82;88.54
75646;BME280;64237;52.438;13.240;2022-10-17T05:20:05;101685.38;;;14.45;80.44
75646;BME280;64237;52.438;13.240;2022-10-17T05:22:30;101684.41;;;13.69;82.64
75646;BME280;64237;52.438;13.240;2022-10-17T05:24:56;101693.91;;;13.27;84.13
75646;BME280;64237;52.438;13.240;2022-10-17T05:27:21;101690.41;;;13.01;84.88
75646;BME280;64237;52.438;13.240;2022-10-17T05:29:46;101683.56;;;12.74;86.48
75646;BME280;64237;52.438;13.240;2022-10-17T05:32:14;101689.72;;;12.58;86.90
75646;BME280;64237;52.438;13.240;2022-10-17T05:34:40;101703.94;;;12.50;87.32
75646;BME280;64237;52.438;13.240;2022-10-17T05:37:06;101691.00;;;12.44;87.47
75646;BME280;64237;52.438;13.240;2022-10-17T05:39:31;101693.00;;;12.36;87.75
75646;BME280;64237;52.438;13.240;2022-10-17T05:41:57;101695.63;;;12.31;88.07
75646;BME280;64237;52.438;13.240;2022-10-17T05:44:22;101699.94;;;12.27;88.26
75646;BME280;64237;52.438;13.240;2022-10-17T05:46:48;101702.94;;;12.26;88.41
75646;BME280;64237;52.438;13.240;2022-10-17T05:49:14;101702.94;;;12.26;88.93
75646;BME280;64237;52.438;13.240;2022-10-17T05:51:39;101695.31;;;12.21;88.79
75646;BME280;64237;52.438;13.240;2022-10-17T05:54:05;101703.41;;;12.23;88.37
75646;BME280;64237;52.438;13.240;2022-10-17T05:56:31;101702.16;;;12.19;87.97
75646;BME280;64237;52.438;13.240;2022-10-17T05:58:57;101709.41;;;12.20;88.91
75646;BME280;64237;52.438;13.240;2022-10-17T06:01:23;101711.97;;;12.21;88.48
75646;BME280;64237;52.438;13.240;2022-10-17T06:03:48;101719.19;;;12.22;88.28
75646;BME280;64237;52.438;13.240;2022-10-17T06:06:16;101721.97;;;12.22;89.38
75646;BME280;64237;52.438;13.240;2022-10-17T06:08:42;101727.06;;;12.25;88.23
75646;BME280;64237;52.438;13.240;2022-10-17T06:11:07;101723.69;;;12.23;88.72
75646;BME280;64237;52.438;13.240;2022-10-17T06:13:33;101730.69;;;12.26;88.99
75646;BME280;64237;52.438;13.240;2022-10-17T06:15:58;101741.34;;;12.29;89.00
75646;BME280;64237;52.438;13.240;2022-10-17T06:18:24;101735.69;;;12.35;88.34
75646;BME280;64237;52.438;13.240;2022-10-17T06:20:50;101736.19;;;12.32;88.42
75646;BME280;64237;52.438;13.240;2022-10-17T06:23:16;101747.63;;;12.36;88.96
75646;BME280;64237;52.438;13.240;2022-10-17T06:25:41;101759.59;;;12.36;89.61
75646;BME280;64237;52.438;13.240;2022-10-17T06:28:08;101757.91;;;12.35;89.25
75646;BME280;64237;52.438;13.240;2022-10-17T06:30:37;101751.66;;;12.40;89.05
75646;BME280;64237;52.438;13.240;2022-10-17T06:33:02;101752.22;;;12.49;90.29
75646;BME280;64237;52.438;13.240;2022-10-17T06:35:27;101752.66;;;12.46;90.01
75646;BME280;64237;52.438;13.240;2022-10-17T06:37:53;101763.31;;;12.49;89.97
75646;BME280;64237;52.438;13.240;2022-10-17T06:40:18;101758.50;;;12.56;90.21
75646;BME280;64237;52.438;13.240;2022-10-17T06:42:43;101754.66;;;12.57;89.65
75646;BME280;64237;52.438;13.240;2022-10-17T06:45:09;101768.69;;;12.62;90.17
75646;BME280;64237;52.438;13.240;2022-10-17T06:47:36;101763.16;;;12.62;89.85
75646;BME280;64237;52.438;13.240;2022-10-17T06:50:03;101753.66;;;12.69;90.37
75646;BME280;64237;52.438;13.240;2022-10-17T06:52:28;101759.50;;;12.80;91.18
75646;BME280;64237;52.438;13.240;2022-10-17T06:54:54;101757.34;;;12.82;90.39
75646;BME280;64237;52.438;13.240;2022-10-17T06:57:20;101752.63;;;12.82;90.99
75646;BME280;64237;52.438;13.240;2022-10-17T06:59:46;101756.66;;;12.86;90.45
75646;BME280;64237;52.438;13.240;2022-10-17T07:02:12;101758.50;;;12.92;90.51
75646;BME280;64237;52.438;13.240;2022-10-17T07:04:37;101768.19;;;13.01;91.13
75646;BME280;64237;52.438;13.240;2022-10-17T07:07:03;101766.88;;;13.04;90.93
75646;BME280;64237;52.438;13.240;2022-10-17T07:09:29;101770.66;;;13.10;90.66
75646;BME280;64237;52.438;13.240;2022-10-17T07:11:56;101771.47;;;13.17;90.51
75646;BME280;64237;52.438;13.240;2022-10-17T07:14:21;101777.28;;;13.27;90.73
75646;BME280;64237;52.438;13.240;2022-10-17T07:16:47;101788.38;;;13.27;90.17
75646;BME280;64237;52.438;13.240;2022-10-17T07:19:12;101782.28;;;13.36;90.58
75646;BME280;64237;52.438;13.240;2022-10-17T07:21:38;101787.72;;;13.43;90.46
75646;BME280;64237;52.438;13.240;2022-10-17T07:24:04;101787.00;;;13.48;90.01
75646;BME280;64237;52.438;13.240;2022-10-17T07:26:30;101785.09;;;13.48;90.23
75646;BME280;64237;52.438;13.240;2022-10-17T07:28:56;101784.63;;;13.51;90.06
75646;BME280;64237;52.438;13.240;2022-10-17T07:31:22;101781.59;;;13.53;89.79
75646;BME280;64237;52.438;13.240;2022-10-17T07:33:48;101783.56;;;13.64;89.66
75646;BME280;64237;52.438;13.240;2022-10-17T07:36:14;101786.97;;;13.78;89.72
75646;BME280;64237;52.438;13.240;2022-10-17T07:38:40;101775.00;;;13.89;89.24
75646;BME280;64237;52.438;13.240;2022-10-17T07:41:07;101780.59;;;14.12;88.07
75646;BME280;64237;52.438;13.240;2022-10-17T07:43:34;101776.25;;;14.16;88.24
75646;BME280;64237;52.438;13.240;2022-10-17T07:46:01;101781.56;;;14.29;88.02
75646;BME280;64237;52.438;13.240;2022-10-17T07:48:28;101786.16;;;14.35;88.13
75646;BME280;64237;52.438;13.240;2022-10-17T07:50:54;101780.41;;;14.49;87.63
75646;BME280;64237;52.438;13.240;2022-10-17T07:53:19;101783.63;;;14.57;87.33
75646;BME280;64237;52.438;13.240;2022-10-17T07:55:44;101774.50;;;14.73;85.93
75646;BME280;64237;52.438;13.240;2022-10-17T07:58:13;101776.91;;;14.93;85.33
75646;BME280;64237;52.438;13.240;2022-10-17T08:00:38;101779.28;;;15.01;85.27
75646;BME280;64237;52.438;13.240;2022-10-17T08:03:04;101782.06;;;15.13;85.42
75646;BME280;64237;52.438;13.240;2022-10-17T08:05:31;101787.47;;;15.20;83.98
75646;BME280;64237;52.438;13.240;2022-10-17T08:07:57;101784.41;;;15.33;84.26
75646;BME280;64237;52.438;13.240;2022-10-17T08:10:23;101791.84;;;15.44;83.92
75646;BME280;64237;52.438;13.240;2022-10-17T08:12:56;101787.41;;;15.60;83.21
75646;BME280;64237;52.438;13.240;2022-10-17T08:15:25;101798.78;;;15.87;81.02
75646;BME280;64237;52.438;13.240;2022-10-17T08:17:52;101790.59;;;15.97;81.71
75646;BME280;64237;52.438;13.240;2022-10-17T08:20:21;101787.03;;;16.18;80.04
75646;BME280;64237;52.438;13.240;2022-10-17T08:22:53;101786.44;;;16.16;79.55
75646;BME280;64237;52.438;13.240;2022-10-17T08:25:21;101789.00;;;16.18;80.08
75646;BME280;64237;52.438;13.240;2022-10-17T08:27:46;101791.03;;;16.22;79.98
75646;BME280;64237;52.438;13.240;2022-10-17T08:30:12;101790.16;;;16.38;79.11
75646;BME280;64237;52.438;13.240;2022-10-17T08:32:37;101783.00;;;16.48;79.27
75646;BME280;64237;52.438;13.240;2022-10-17T08:35:03;101773.00;;;16.52;79.34
75646;BME280;64237;52.438;13.240;2022-10-17T08:37:28;101774.38;;;16.49;79.23
75646;BME280;64237;52.438;13.240;2022-10-17T08:39:55;101767.34;;;16.46;79.47
75646;BME280;64237;52.438;13.240;2022-10-17T08:42:33;101778.09;;;16.55;79.28
75646;BME280;64237;52.438;13.240;2022-10-17T08:45:12;101781.97;;;16.70;78.46
75646;BME280;64237;52.438;13.240;2022-10-17T08:47:50;101780.22;;;16.86;77.70
75646;BME280;64237;52.438;13.240;2022-10-17T08:55:54;101783.88;;;17.35;75.30
75646;BME280;64237;52.438;13.240;2022-10-17T08:58:22;101779.19;;;17.41;74.57
75646;BME280;64237;52.438;13.240;2022-10-17T09:01:05;101770.66;;;17.53;75.15
75646;BME280;64237;52.438;13.240;2022-10-17T09:06:26;101781.25;;;17.77;74.28
75646;BME280;64237;52.438;13.240;2022-10-17T09:19:19;101785.50;;;18.12;72.67
75646;BME280;64237;52.438;13.240;2022-10-17T09:22:07;101781.06;;;18.21;72.21
75646;BME280;64237;52.438;13.240;2022-10-17T09:24:45;101782.31;;;18.35;71.14
75646;BME280;64237;52.438;13.240;2022-10-17T09:27:24;101779.50;;;18.40;70.89
75646;BME280;64237;52.438;13.240;2022-10-17T09:29:55;101776.16;;;18.38;72.28
75646;BME280;64237;52.438;13.240;2022-10-17T09:32:26;101783.81;;;18.53;71.17
75646;BME280;64237;52.438;13.240;2022-10-17T09:34:52;101774.09;;;18.66;71.58
75646;BME280;64237;52.438;13.240;2022-10-17T09:37:18;101775.31;;;18.85;69.88
75646;BME280;64237;52.438;13.240;2022-10-17T09:39:45;101770.28;;;18.92;68.70
75646;BME280;64237;52.438;13.240;2022-10-17T09:42:13;101772.31;;;19.07;68.52
75646;BME280;64237;52.438;13.240;2022-10-17T09:44:56;101760.03;;;19.23;67.76
75646;BME280;64237;52.438;13.240;2022-10-17T09:47:44;101767.69;;;19.48;67.33
75646;BME280;64237;52.438;13.240;2022-10-17T09:50:26;101763.50;;;19.56;67.26
75646;BME280;64237;52.438;13.240;2022-10-17T09:52:52;101757.06;;;19.75;66.49
75646;BME280;64237;52.438;13.240;2022-10-17T09:55:30;101757.63;;;19.93;66.21
75646;BME280;64237;52.438;13.240;2022-10-17T09:58:00;101762.69;;;20.06;66.07
75646;BME280;64237;52.438;13.240;2022-10-17T10:00:41;101761.81;;;20.26;64.92
75646;BME280;64237;52.438;13.240;2022-10-17T10:05:38;101760.13;;;20.55;63.20
75646;BME280;64237;52.438;13.240;2022-10-17T10:08:18;101762.81;;;20.80;62.75
75646;BME280;64237;52.438;13.240;2022-10-17T10:10:44;101769.81;;;20.98;63.43
75646;BME280;64237;52.438;13.240;2022-10-17T10:15:40;101768.06;;;21.07;61.31
75646;BME280;64237;52.438;13.240;2022-10-17T10:21:05;101761.84;;;21.10;62.16
75646;BME280;64237;52.438;13.240;2022-10-17T10:23:31;101764.97;;;21.09;62.87
75646;BME280;64237;52.438;13.240;2022-10-17T10:25:58;101769.16;;;21.22;61.16
75646;BME280;64237;52.438;13.240;2022-10-17T10:28:26;101770.25;;;21.26;60.14
75646;BME280;64237;52.438;13.240;2022-10-17T10:30:53;101760.06;;;21.40;59.86
75646;BME280;64237;52.438;13.240;2022-10-17T10:33:22;101757.41;;;21.53;60.07
75646;BME280;64237;52.438;13.240;2022-10-17T10:35:59;101754.38;;;21.84;58.52
75646;BME280;64237;52.438;13.240;2022-10-17T10:38:26;101757.81;;;22.10;58.63
75646;BME280;64237;52.438;13.240;2022-10-17T10:40:55;101753.84;;;22.16;58.61
75646;BME280;64237;52.438;13.240;2022-10-17T10:43:30;101762.50;;;22.25;58.18
75646;BME280;64237;52.438;13.240;2022-10-17T10:45:57;101754.66;;;22.45;55.71
75646;BME280;64237;52.438;13.240;2022-10-17T10:48:34;101741.47;;;22.65;55.54
75646;BME280;64237;52.438;13.240;2022-10-17T10:51:10;101736.81;;;22.79;54.48
75646;BME280;64237;52.438;13.240;2022-10-17T10:53:51;101736.94;;;22.93;55.92
75646;BME280;64237;52.438;13.240;2022-10-17T10:56:37;101732.59;;;23.00;53.69
75646;BME280;64237;52.438;13.240;2022-10-17T11:05:00;101739.56;;;23.45;52.88
75646;BME280;64237;52.438;13.240;2022-10-17T11:07:41;101732.84;;;23.41;52.27
75646;BME280;64237;52.438;13.240;2022-10-17T11:15:25;101730.41;;;23.72;51.35
75646;BME280;64237;52.438;13.240;2022-10-17T11:21:15;101703.56;;;23.88;50.02
75646;BME280;64237;52.438;13.240;2022-10-17T11:23:55;101711.34;;;23.97;49.52
75646;BME280;64237;52.438;13.240;2022-10-17T11:26:28;101715.66;;;24.08;49.67
75646;BME280;64237;52.438;13.240;2022-10-17T11:28:57;101707.16;;;24.08;52.20
75646;BME280;64237;52.438;13.240;2022-10-17T11:31:29;101718.69;;;23.98;51.33
75646;BME280;64237;52.438;13.240;2022-10-17T11:34:03;101723.06;;;24.04;52.03
75646;BME280;64237;52.438;13.240;2022-10-17T11:36:35;101710.84;;;24.41;49.41
75646;BME280;64237;52.438;13.240;2022-10-17T11:41:33;101719.53;;;24.85;48.24
75646;BME280;64237;52.438;13.240;2022-10-17T11:47:15;101717.94;;;24.93;48.39
75646;BME280;64237;52.438;13.240;2022-10-17T11:49:51;101709.78;;;24.78;48.25
75646;BME280;64237;52.438;13.240;2022-10-17T11:52:38;101714.72;;;25.36;46.99
75646;BME280;64237;52.438;13.240;2022-10-17T11:55:26;101720.63;;;25.98;46.50
75646;BME280;64237;52.438;13.240;2022-10-17T11:58:27;101712.09;;;26.51;44.84
75646;BME280;64237;52.438;13.240;2022-10-17T12:00:59;101718.38;;;26.79;42.54
75646;BME280;64237;52.438;13.240;2022-10-17T12:12:01;101705.66;;;27.85;39.82
75646;BME280;64237;52.438;13.240;2022-10-17T12:16:59;101701.75;;;28.24;40.12
75646;BME280;64237;52.438;13.240;2022-10-17T12:19:27;101695.28;;;26.72;42.16
75646;BME280;64237;52.438;13.240;2022-10-17T12:22:32;101693.63;;;27.27;40.65
75646;BME280;64237;52.438;13.240;2022-10-17T12:25:01;101701.84;;;27.63;40.86
75646;BME280;64237;52.438;13.240;2022-10-17T12:32:35;101694.06;;;27.12;42.83
75646;BME280;64237;52.438;13.240;2022-10-17T12:35:02;101683.72;;;27.16;41.84
75646;BME280;64237;52.438;13.240;2022-10-17T12:38:01;101676.72;;;27.40;40.92
75646;BME280;64237;52.438;13.240;2022-10-17T12:42:58;101676.28;;;26.81;42.42
75646;BME280;64237;52.438;13.240;2022-10-17T12:48:09;101694.59;;;25.37;47.24
75646;BME280;64237;52.438;13.240;2022-10-17T12:56:41;101690.09;;;24.45;49.95
75646;BME280;64237;52.438;13.240;2022-10-17T12:59:27;101681.19;;;24.06;50.41
75646;BME280;64237;52.438;13.240;2022-10-17T13:02:02;101679.09;;;23.98;50.54
75646;BME280;64237;52.438;13.240;2022-10-17T13:04:28;101681.56;;;23.85;50.35
75646;BME280;64237;52.438;13.240;2022-10-17T13:06:56;101673.06;;;23.85;50.41
75646;BME280;64237;52.438;13.240;2022-10-17T13:09:43;101680.41;;;23.86;50.79
75646;BME280;64237;52.438;13.240;2022-10-17T13:12:13;101669.84;;;23.78;51.38
75646;BME280;64237;52.438;13.240;2022-10-17T13:14:41;101672.91;;;23.63;53.06
75646;BME280;64237;52.438;13.240;2022-10-17T13:17:28;101676.44;;;23.55;51.91
75646;BME280;64237;52.438;13.240;2022-10-17T13:19:56;101684.41;;;23.53;51.46
75646;BME280;64237;52.438;13.240;2022-10-17T13:22:24;101683.91;;;23.46;51.59
75646;BME280;64237;52.438;13.240;2022-10-17T13:24:51;101676.66;;;23.40;53.62
75646;BME280;64237;52.438;13.240;2022-10-17T13:27:29;101680.94;;;23.37;52.55
75646;BME280;64237;52.438;13.240;2022-10-17T13:29:56;101679.09;;;23.46;52.16
75646;BME280;64237;52.438;13.240;2022-10-17T13:32:24;101680.09;;;23.37;53.00
75646;BME280;64237;52.438;13.240;2022-10-17T13:37:34;101678.09;;;23.18;53.05
75646;BME280;64237;52.438;13.240;2022-10-17T13:40:01;101674.69;;;23.21;52.63
75646;BME280;64237;52.438;13.240;2022-10-17T13:42:37;101680.56;;;23.06;55.59
75646;BME280;64237;52.438;13.240;2022-10-17T13:45:15;101679.47;;;23.02;54.18
75646;BME280;64237;52.438;13.240;2022-10-17T13:47:42;101672.22;;;22.96;53.93
75646;BME280;64237;52.438;13.240;2022-10-17T13:50:19;101678.50;;;22.93;53.55
75646;BME280;64237;52.438;13.240;2022-10-17T13:52:45;101686.72;;;22.89;54.16
75646;BME280;64237;52.438;13.240;2022-10-17T13:55:16;101687.34;;;22.86;54.95
75646;BME280;64237;52.438;13.240;2022-10-17T13:57:41;101693.81;;;22.87;53.82
75646;BME280;64237;52.438;13.240;2022-10-17T14:00:17;101684.56;;;22.81;54.52
75646;BME280;64237;52.438;13.240;2022-10-17T14:02:43;101679.75;;;22.82;53.73
75646;BME280;64237;52.438;13.240;2022-10-17T14:05:17;101684.75;;;22.90;53.98
75646;BME280;64237;52.438;13.240;2022-10-17T14:07:58;101696.03;;;22.90;53.49
75646;BME280;64237;52.438;13.240;2022-10-17T14:10:30;101690.22;;;22.81;54.16
75646;BME280;64237;52.438;13.240;2022-10-17T14:12:57;101691.06;;;22.82;54.32
75646;BME280;64237;52.438;13.240;2022-10-17T14:15:28;101682.59;;;22.82;53.53
75646;BME280;64237;52.438;13.240;2022-10-17T14:18:05;101689.13;;;22.77;54.81
75646;BME280;64237;52.438;13.240;2022-10-17T14:20:32;101692.91;;;22.68;54.88
75646;BME280;64237;52.438;13.240;2022-10-17T14:22:59;101691.78;;;22.69;54.92
75646;BME280;64237;52.438;13.240;2022-10-17T14:25:30;101699.34;;;22.73;54.34
75646;BME280;64237;52.438;13.240;2022-10-17T14:30:38;101686.19;;;22.64;54.85
75646;BME280;64237;52.438;13.240;2022-10-17T14:33:07;101697.53;;;22.58;54.96
75646;BME280;64237;52.438;13.240;2022-10-17T14:35:34;101690.81;;;22.54;55.37
75646;BME280;64237;52.438;13.240;2022-10-17T14:38:02;101706.53;;;22.61;55.58
75646;BME280;64237;52.438;13.240;2022-10-17T14:40:29;101702.16;;;22.49;55.47
75646;BME280;64237;52.438;13.240;2022-10-17T14:42:58;101699.09;;;22.46;56.15
75646;BME280;64237;52.438;13.240;2022-10-17T14:47:50;101705.22;;;22.29;56.45
75646;BME280;64237;52.438;13.240;2022-10-17T14:50:22;101697.16;;;22.17;56.58
75646;BME280;64237;52.438;13.240;2022-10-17T14:52:59;101698.41;;;22.06;57.97